Messwerte Quillayute

Temperatur

Temperatur
°C
1593802800 12.00 12.00 13
1593806400 13.00 13.00 13
1593810000 14.00 14.00 13
1593813600 15.00 15.00
1593817200 16.00 16.00 13
1593820800 17.00 17.00 13
1593824400 18.00 18.00 13
1593828000 19.00 19.00 13
1593831600 20.00 20.00 13
1593835200 21.00 21.00 13
1593838800 22.00 22.00 12
1593842400 23.00 23.00 12
1593846000 0.00 0.00 12
1593849600 1.00 1.00
1593853200 2.00 2.00 12
1593856800 3.00 3.00 12
1593860400 4.00 4.00 12
1593864000 5.00 5.00 12
1593867600 6.00 6.00 12
1593871200 7.00 7.00 12
1593874800 8.00 8.00 12
1593878400 9.00 9.00 13
1593882000 10.00 10.00 14
1593885600 11.00 11.00 15

Aktuellste Messwerte

Wettercharakter
Wetter: bedeckt
Temperatur
16 °C
Feuchtigkeit
80 %
Wind
15 km/hWindrichtung: Südwest
Luftdruck
1024 hPa
Messzeit: 4. Juli 2020, 12.00Datenquelle: METAR

Weitere Messstationen in der Nähe

Messstation Temperatur Entfernung
Sheringham 12 °C 67 km
Race Rocks 12 °C 85 km
Port Angeles WA 13 °C 87 km
Port Angeles 14 °C 88 km
Esquimalt Harbour 13 °C 99 km
Malahat 13 °C 100 km
Victoria Harbor 15 °C 104 km

Wind

Windrichtung Böen Mittelwind
° km/h km/h
1593802800 12.00 11.00 - 12.00 170° 10
1593806400 13.00 12.00 - 13.00 10
1593810000 14.00 13.00 - 14.00 10
1593813600 15.00 14.00 - 15.00
1593817200 16.00 15.00 - 16.00 190° 10
1593820800 17.00 16.00 - 17.00 180° 10
1593824400 18.00 17.00 - 18.00 200° 10
1593828000 19.00 18.00 - 19.00 5
1593831600 20.00 19.00 - 20.00 0
1593835200 21.00 20.00 - 21.00 0
1593838800 22.00 21.00 - 22.00 130° 5
1593842400 23.00 22.00 - 23.00 0
1593846000 0.00 23.00 - 0.00 0
1593849600 1.00 0.00 - 1.00
1593853200 2.00 1.00 - 2.00 0
1593856800 3.00 2.00 - 3.00 0
1593860400 4.00 3.00 - 4.00 0
1593864000 5.00 4.00 - 5.00 0
1593867600 6.00 5.00 - 6.00 0
1593871200 7.00 6.00 - 7.00 0
1593874800 8.00 7.00 - 8.00 0
1593878400 9.00 8.00 - 9.00 0
1593882000 10.00 9.00 - 10.00 220° 10
1593885600 11.00 10.00 - 11.00 220° 15

Ihre Wetterstation

Fehlt Ihre Wetterstation auf unserem Portal?

Schreiben Sie an network@meteonews.ch

Klima

Wann ist es am wärmsten? Wann regnet es am wenigsten? Unsere Klimadaten geben Auskunft.